createdAt,value
2022-10-18T00:01:18.731Z,101031.20
2022-10-18T00:06:22.006Z,101030.80
2022-10-18T00:11:25.560Z,101022.00
2022-10-18T00:16:29.071Z,101016.20
2022-10-18T00:21:32.704Z,101019.60
2022-10-18T00:26:36.536Z,101020.60
2022-10-18T00:31:39.937Z,101025.60
2022-10-18T00:36:44.458Z,101025.00
2022-10-18T00:41:49.058Z,101033.80
2022-10-18T00:46:58.252Z,101036.00
2022-10-18T00:52:18.166Z,101044.00
2022-10-18T00:57:21.949Z,101042.40
2022-10-18T01:02:26.764Z,101045.00
2022-10-18T01:07:41.999Z,101039.20
2022-10-18T01:13:15.647Z,101034.80
2022-10-18T01:18:52.142Z,101026.20
2022-10-18T01:24:18.755Z,101021.60
2022-10-18T01:29:52.426Z,101010.60
2022-10-18T01:35:11.710Z,101001.00
2022-10-18T01:40:20.852Z,101002.20
2022-10-18T01:45:26.772Z,100999.40
2022-10-18T01:50:33.825Z,100994.80
2022-10-18T01:55:57.830Z,100991.80
2022-10-18T02:06:29.782Z,100992.20
2022-10-18T02:11:36.225Z,100992.80
2022-10-18T02:16:45.678Z,100987.60
2022-10-18T02:21:52.123Z,100981.40
2022-10-18T02:26:55.577Z,100982.00
2022-10-18T02:32:20.366Z,100980.60
2022-10-18T02:42:46.985Z,100988.40
2022-10-18T02:47:50.295Z,100989.00
2022-10-18T02:52:53.550Z,100986.60
2022-10-18T02:57:56.817Z,100991.20
2022-10-18T03:03:00.130Z,101000.80
2022-10-18T03:08:03.852Z,100990.00
2022-10-18T03:13:07.058Z,101006.60
2022-10-18T03:18:10.930Z,101019.20
2022-10-18T03:23:14.191Z,101019.00
2022-10-18T03:28:17.446Z,101019.20
2022-10-18T03:33:21.053Z,101023.80
2022-10-18T03:38:24.447Z,101019.20
2022-10-18T03:43:27.745Z,101027.40
2022-10-18T03:48:31.190Z,101028.80
2022-10-18T03:53:34.608Z,101035.00
2022-10-18T03:58:37.894Z,101038.00
2022-10-18T04:03:41.196Z,101047.20
2022-10-18T04:08:44.620Z,101050.20
2022-10-18T04:13:47.951Z,101048.00
2022-10-18T04:18:51.234Z,101044.80
2022-10-18T04:23:54.549Z,101041.20
2022-10-18T04:28:58.082Z,101035.20
2022-10-18T04:34:02.706Z,101042.00
2022-10-18T04:39:06.324Z,101050.20
2022-10-18T04:44:10.056Z,101054.20
2022-10-18T04:49:13.466Z,101046.20
2022-10-18T04:54:16.882Z,101048.60
2022-10-18T04:59:20.881Z,101064.20
2022-10-18T05:04:24.322Z,101065.20
2022-10-18T05:09:27.831Z,101070.00
2022-10-18T05:14:31.148Z,101070.40
2022-10-18T05:19:34.867Z,101071.60
2022-10-18T05:24:38.281Z,101066.40
2022-10-18T05:29:41.799Z,101055.80
2022-10-18T05:34:45.138Z,101056.60
2022-10-18T05:39:48.489Z,101066.20
2022-10-18T05:44:51.742Z,101069.80
2022-10-18T05:49:55.346Z,101078.40
2022-10-18T05:54:59.273Z,101083.20
2022-10-18T06:00:03.096Z,101091.20
2022-10-18T06:05:06.613Z,101099.80
2022-10-18T06:10:10.864Z,101106.00
2022-10-18T06:15:14.464Z,101095.60
2022-10-18T06:20:18.119Z,101086.20
2022-10-18T06:25:21.396Z,101077.00
2022-10-18T06:30:24.979Z,101092.20
2022-10-18T06:35:28.987Z,101110.20
2022-10-18T06:40:38.193Z,101113.20
2022-10-18T06:45:41.609Z,101099.20
2022-10-18T06:51:02.020Z,101091.60
2022-10-18T06:56:10.612Z,101103.60
2022-10-18T07:01:17.001Z,101107.00
2022-10-18T07:06:21.123Z,101109.80
2022-10-18T07:11:27.551Z,101107.80
2022-10-18T07:16:35.065Z,101119.60
2022-10-18T07:21:38.478Z,101119.40
2022-10-18T07:26:42.770Z,101126.00
2022-10-18T07:31:46.029Z,101125.80
2022-10-18T07:36:49.449Z,101125.60
2022-10-18T07:41:52.860Z,101143.40
2022-10-18T07:46:56.123Z,101140.60
2022-10-18T07:51:59.496Z,101142.80
2022-10-18T07:57:05.343Z,101150.00
2022-10-18T08:02:09.798Z,101141.40
2022-10-18T08:07:13.610Z,101151.40
2022-10-18T08:12:16.915Z,101152.40
2022-10-18T08:17:20.230Z,101153.80
2022-10-18T08:22:23.638Z,101149.00
2022-10-18T08:27:27.065Z,101146.20
2022-10-18T08:32:30.674Z,101155.20
2022-10-18T08:37:34.881Z,101158.60
2022-10-18T08:43:06.068Z,101155.20
2022-10-18T08:48:25.947Z,101144.40
2022-10-18T08:54:56.718Z,101124.40
2022-10-18T09:00:06.493Z,101108.80
2022-10-18T09:05:56.817Z,101099.20
2022-10-18T09:11:19.063Z,101118.00
2022-10-18T09:17:06.405Z,101144.20
2022-10-18T09:22:20.676Z,101141.00
2022-10-18T09:27:38.291Z,101120.20
2022-10-18T09:33:19.836Z,101101.20
2022-10-18T09:38:31.073Z,101072.60
2022-10-18T09:43:50.112Z,101096.60
2022-10-18T09:49:14.286Z,101121.20
2022-10-18T09:54:48.441Z,101114.20
2022-10-18T09:59:51.959Z,101097.40
2022-10-18T10:04:55.990Z,101073.80
2022-10-18T10:10:20.351Z,101076.80
2022-10-18T10:15:31.289Z,101083.60
2022-10-18T10:20:50.583Z,101079.00
2022-10-18T10:26:01.481Z,101074.00
2022-10-18T10:31:25.070Z,101079.00
2022-10-18T10:36:29.857Z,101091.20
2022-10-18T10:41:34.415Z,101095.60
2022-10-18T10:46:37.867Z,101093.60
2022-10-18T10:51:41.461Z,101096.20
2022-10-18T10:57:19.303Z,101088.60
2022-10-18T11:02:34.368Z,101083.20
2022-10-18T11:07:46.756Z,101092.40
2022-10-18T11:13:02.908Z,101088.00
2022-10-18T11:18:30.510Z,101076.80
2022-10-18T11:23:38.749Z,101069.40
2022-10-18T11:29:29.112Z,101067.20
2022-10-18T11:35:03.174Z,101069.60
2022-10-18T11:41:09.188Z,101074.40
2022-10-18T11:46:44.738Z,101049.60
2022-10-18T11:52:08.012Z,101040.20
2022-10-18T11:57:40.307Z,101039.60
2022-10-18T12:03:08.639Z,101023.40
2022-10-18T12:08:19.473Z,101015.80
2022-10-18T12:14:07.753Z,101001.60
2022-10-18T12:19:27.631Z,101000.40
2022-10-18T12:24:34.617Z,100987.20
2022-10-18T12:29:52.723Z,100987.40
2022-10-18T12:35:15.571Z,100981.60
2022-10-18T12:40:43.037Z,100982.60
2022-10-18T12:46:02.761Z,100985.00
2022-10-18T12:51:19.462Z,100986.20
2022-10-18T12:56:28.613Z,100979.00
2022-10-18T13:01:52.174Z,100977.20
2022-10-18T13:06:58.588Z,100957.40
2022-10-18T13:12:10.836Z,100946.80
2022-10-18T13:17:45.498Z,100956.60
2022-10-18T13:23:23.782Z,100929.20
2022-10-18T13:28:36.049Z,100927.60
2022-10-18T13:33:42.083Z,100923.80
2022-10-18T13:38:58.448Z,100932.20
2022-10-18T13:44:24.159Z,100928.20
2022-10-18T13:49:39.223Z,100943.20
2022-10-18T13:55:39.258Z,100936.60
2022-10-18T14:01:14.681Z,100945.00
2022-10-18T14:06:29.293Z,100928.00
2022-10-18T14:11:46.352Z,100929.00
2022-10-18T14:17:15.413Z,100920.40
2022-10-18T14:22:47.036Z,100901.00
2022-10-18T14:28:12.229Z,100894.80
2022-10-18T14:33:37.270Z,100885.20
2022-10-18T14:39:02.938Z,100879.00
2022-10-18T14:44:19.628Z,100851.80
2022-10-18T14:49:23.110Z,100859.00
2022-10-18T14:54:33.067Z,100863.40
2022-10-18T14:59:53.942Z,100834.00
2022-10-18T15:05:31.145Z,100850.00
2022-10-18T15:10:36.050Z,100834.60
2022-10-18T15:15:40.950Z,100836.00
2022-10-18T15:20:44.565Z,100861.00
2022-10-18T15:25:48.283Z,100875.40
2022-10-18T15:30:51.915Z,100858.80
2022-10-18T15:35:55.519Z,100836.00
2022-10-18T15:40:59.187Z,100829.40
2022-10-18T15:46:06.803Z,100813.60
2022-10-18T15:51:48.231Z,100830.00
2022-10-18T15:56:51.564Z,100812.80
2022-10-18T16:01:55.678Z,100832.20
2022-10-18T16:07:00.522Z,100826.20
2022-10-18T16:12:05.839Z,100821.40
2022-10-18T16:17:17.612Z,100825.20
2022-10-18T16:22:20.914Z,100827.00
2022-10-18T16:27:25.289Z,100832.00
2022-10-18T16:32:28.642Z,100827.80
2022-10-18T16:37:31.992Z,100833.00
2022-10-18T16:42:35.553Z,100838.60
2022-10-18T16:47:39.047Z,100846.00
2022-10-18T16:52:43.314Z,100847.40
2022-10-18T16:57:47.144Z,100846.00
2022-10-18T17:02:51.007Z,100851.80
2022-10-18T17:07:54.360Z,100846.20
2022-10-18T17:12:57.726Z,100835.80
2022-10-18T17:18:01.447Z,100841.20
2022-10-18T17:23:04.863Z,100842.20
2022-10-18T17:28:08.380Z,100832.20
2022-10-18T17:33:13.274Z,100826.00
2022-10-18T17:38:16.637Z,100832.80
2022-10-18T17:43:20.232Z,100846.00
2022-10-18T17:48:24.804Z,100862.60
2022-10-18T17:53:29.401Z,100845.80
2022-10-18T17:58:33.061Z,100850.60
2022-10-18T18:03:36.560Z,100862.60
2022-10-18T18:08:39.993Z,100867.80
2022-10-18T18:13:43.508Z,100860.00
2022-10-18T18:18:50.832Z,100872.20
2022-10-18T18:23:54.843Z,100859.40
2022-10-18T18:28:58.258Z,100858.20
2022-10-18T18:34:02.256Z,100860.00
2022-10-18T18:39:06.308Z,100857.60
2022-10-18T18:44:09.713Z,100853.40
2022-10-18T18:49:14.058Z,100847.60
2022-10-18T18:54:17.473Z,100851.80
2022-10-18T18:59:21.060Z,100847.60
2022-10-18T19:04:24.305Z,100835.20
2022-10-18T19:09:28.243Z,100834.00
2022-10-18T19:14:31.591Z,100836.00
2022-10-18T19:19:34.951Z,100834.00
2022-10-18T19:24:38.365Z,100839.40
2022-10-18T19:29:42.291Z,100832.80
2022-10-18T19:34:45.702Z,100833.00
2022-10-18T19:39:49.224Z,100837.20
2022-10-18T19:44:52.841Z,100837.00
2022-10-18T19:49:56.464Z,100825.60
2022-10-18T19:54:59.771Z,100826.40
2022-10-18T20:00:08.118Z,100818.60
2022-10-18T20:05:14.078Z,100806.40
2022-10-18T20:10:17.629Z,100800.60
2022-10-18T20:15:20.933Z,100800.80
2022-10-18T20:20:24.314Z,100809.40
2022-10-18T20:25:27.628Z,100801.00
2022-10-18T20:30:31.038Z,100801.20
2022-10-18T20:35:34.304Z,100800.00
2022-10-18T20:40:37.670Z,100802.00
2022-10-18T20:45:40.980Z,100798.20
2022-10-18T20:50:44.391Z,100802.00
2022-10-18T20:55:47.707Z,100799.20
2022-10-18T21:00:50.930Z,100775.20
2022-10-18T21:05:54.257Z,100771.40
2022-10-18T21:11:01.577Z,100778.20
2022-10-18T21:16:07.570Z,100779.60
2022-10-18T21:21:16.683Z,100773.60
2022-10-18T21:26:24.517Z,100767.80
2022-10-18T21:31:31.573Z,100770.20
2022-10-18T21:36:37.544Z,100761.80
2022-10-18T21:41:41.680Z,100755.60
2022-10-18T21:46:45.360Z,100761.40
2022-10-18T21:51:48.640Z,100759.20
2022-10-18T21:56:52.022Z,100754.60
2022-10-18T22:01:55.324Z,100751.40
2022-10-18T22:06:59.756Z,100745.20
2022-10-18T22:12:03.807Z,100738.40
2022-10-18T22:17:07.100Z,100732.20
2022-10-18T22:22:10.838Z,100726.60
2022-10-18T22:27:14.243Z,100724.20
2022-10-18T22:32:17.473Z,100718.40
2022-10-18T22:37:20.757Z,100701.80
2022-10-18T22:42:24.044Z,100698.00
2022-10-18T22:47:27.482Z,100685.80
2022-10-18T22:52:30.784Z,100666.20
2022-10-18T22:57:34.315Z,100665.00
2022-10-18T23:02:37.623Z,100655.40
2022-10-18T23:07:40.933Z,100666.80
2022-10-18T23:12:44.377Z,100675.60
2022-10-18T23:17:50.137Z,100668.60
2022-10-18T23:22:53.779Z,100659.40
2022-10-18T23:27:57.880Z,100653.80
2022-10-18T23:33:01.189Z,100654.00
2022-10-18T23:38:04.494Z,100655.40
2022-10-18T23:43:07.805Z,100641.40
2022-10-18T23:48:11.317Z,100645.00
2022-10-18T23:53:14.768Z,100633.80
2022-10-18T23:58:18.061Z,100626.40
